Terminal Aerodrome Forecast
Issued by NWS

Home | Current Version | Previous Version | Graphics & Text | Print | Product List | Glossary On
Versions: 1 2 3 4 5 6 7 8 9 10 11 12 13 14 15 16 17 18 19 20
000
FTUS43 KLSX 151121
TAFSUS
TAF
KSUS 151121Z 1512/1612 30012G25KT 6SM -SHRA SCT011 OVC025
      TEMPO 1512/1514 BKN011
     FM151400 31013G25KT P6SM OVC025
     FM151700 32013G23KT P6SM SCT030
     FM152300 33008KT P6SM SKC
     FM160800 32004KT P6SM SKC=

USA.gov is the U.S. government's official web portal to all federal, state and local government web resources and services.